Time;durP1;ratioP1;P1;durP2;ratioP2;P2;SDS_P1;SDS_P2;PMS_P1;PMS_P2;Temp;Humidity;BMP_temperature;BMP_pressure;BME280_temperature;BME280_humidity;BME280_pressure;Samples;Min_cycle;Max_cycle;Signal;HPM_P1;HPM_P2
2021/12/15 00:00:21;;;;;;;64.55;33.10;;;10.20;99.90;;;;;;5033536;28;20505;-53
2021/12/15 00:02:50;;;;;;;63.85;32.28;;;10.20;99.90;;;;;;4995105;28;20046;-55
2021/12/15 00:05:21;;;;;;;69.13;32.97;;;10.20;99.90;;;;;;5013403;28;20085;-53
2021/12/15 00:07:49;;;;;;;67.53;33.25;;;10.20;99.90;;;;;;5013701;28;20050;-53
2021/12/15 00:10:15;;;;;;;67.70;32.53;;;10.30;99.90;;;;;;5012532;28;20084;-52
2021/12/15 00:12:41;;;;;;;74.07;33.25;;;10.30;99.90;;;;;;5014766;28;20038;-52
2021/12/15 00:15:07;;;;;;;66.85;32.10;;;10.30;99.90;;;;;;5032706;28;20440;-53
2021/12/15 00:17:33;;;;;;;64.03;31.80;;;10.30;99.90;;;;;;5006749;28;20041;-51
2021/12/15 00:19:59;;;;;;;69.07;34.13;;;10.30;99.90;;;;;;5015192;28;20033;-54
2021/12/15 00:22:25;;;;;;;66.35;32.90;;;10.30;99.90;;;;;;4993359;28;20098;-52
2021/12/15 00:24:50;;;;;;;68.85;33.25;;;10.30;99.90;;;;;;5024054;28;20044;-53
2021/12/15 00:27:16;;;;;;;68.35;31.88;;;10.30;99.90;;;;;;5032472;28;20040;-54
2021/12/15 00:29:42;;;;;;;67.65;31.75;;;10.30;99.90;;;;;;5032732;28;20127;-52
2021/12/15 00:32:08;;;;;;;64.40;31.95;;;10.30;99.90;;;;;;5031935;28;20034;-52
2021/12/15 00:34:40;;;;;;;69.45;32.55;;;10.30;99.90;;;;;;5032988;28;20049;-51
2021/12/15 00:37:06;;;;;;;;;;;10.30;99.90;;;;;;5015534;28;20041;-50
2021/12/15 00:39:32;;;;;;;70.95;31.02;;;10.30;99.90;;;;;;5026648;28;19923;-53
2021/12/15 00:41:59;;;;;;;59.42;30.10;;;10.30;99.90;;;;;;5026789;28;20037;-52
2021/12/15 00:44:25;;;;;;;72.07;31.38;;;10.30;99.90;;;;;;5013984;28;20041;-53
2021/12/15 00:46:52;;;;;;;65.82;31.40;;;10.20;99.90;;;;;;5032238;28;20044;-55
2021/12/15 00:49:19;;;;;;;73.60;32.13;;;10.30;99.90;;;;;;5031921;28;20041;-53
2021/12/15 00:51:45;;;;;;;65.65;31.30;;;10.30;99.90;;;;;;5028307;28;20104;-53
2021/12/15 00:54:11;;;;;;;68.63;29.98;;;10.30;99.90;;;;;;5028117;28;20505;-50
2021/12/15 00:56:37;;;;;;;77.13;32.35;;;10.30;99.90;;;;;;5032401;28;20494;-52
2021/12/15 00:59:07;;;;;;;75.72;31.48;;;10.30;99.90;;;;;;5031442;28;20064;-51
2021/12/15 01:01:36;;;;;;;66.20;31.13;;;10.30;99.90;;;;;;5031840;28;20136;-54
2021/12/15 01:06:48;;;;;;;70.25;30.48;;;10.30;99.90;;;;;;5018343;28;20042;-53
2021/12/15 01:09:20;;;;;;;62.30;29.08;;;10.30;99.90;;;;;;4983713;28;20068;-54
2021/12/15 01:14:35;;;;;;;69.35;29.45;;;10.30;99.90;;;;;;5011634;28;20045;-54
2021/12/15 01:19:53;;;;;;;62.55;28.40;;;10.30;99.90;;;;;;5005310;28;20475;-53
2021/12/15 01:22:43;;;;;;;66.07;30.13;;;10.30;99.90;;;;;;4986101;28;20058;-54
2021/12/15 01:25:13;;;;;;;74.32;28.75;;;10.30;99.90;;;;;;4994864;28;20066;-54
2021/12/15 01:27:39;;;;;;;67.20;27.85;;;10.30;99.90;;;;;;5011807;28;20045;-54
2021/12/15 01:30:39;;;;;;;65.55;28.30;;;10.20;99.90;;;;;;5000039;28;20034;-52
2021/12/15 01:33:44;;;;;;;62.45;28.23;;;10.30;99.90;;;;;;4921121;28;20035;-51
2021/12/15 01:36:10;;;;;;;69.20;28.98;;;10.20;99.90;;;;;;5015224;28;20038;-52
2021/12/15 01:38:39;;;;;;;63.95;28.27;;;10.30;99.90;;;;;;5011882;28;20049;-53
2021/12/15 01:41:07;;;;;;;65.60;27.83;;;10.30;99.90;;;;;;5009936;28;20433;-51
2021/12/15 01:46:52;;;;;;;65.75;28.20;;;10.30;99.90;;;;;;5011981;28;20072;-53
2021/12/15 01:46:52;;;;;;;71.75;28.05;;;10.20;99.90;;;;;;5011277;28;20046;-51
2021/12/15 01:49:27;;;;;;;69.47;29.38;;;10.30;99.90;;;;;;5011890;28;20041;-52
2021/12/15 01:51:54;;;;;;;68.78;28.33;;;10.30;99.90;;;;;;4993991;28;20052;-53
2021/12/15 01:54:23;;;;;;;56.83;26.92;;;10.30;99.90;;;;;;5004497;28;20041;-55
2021/12/15 01:56:50;;;;;;;65.25;27.70;;;10.30;99.90;;;;;;4978635;28;20041;-53
2021/12/15 01:59:19;;;;;;;65.13;28.10;;;10.30;99.90;;;;;;5011288;28;20036;-50
2021/12/15 02:01:45;;;;;;;65.95;28.55;;;10.20;99.90;;;;;;5005282;28;20042;-54
2021/12/15 02:04:11;;;;;;;71.35;28.55;;;10.30;99.90;;;;;;5007285;28;20037;-51
2021/12/15 02:06:42;;;;;;;56.78;26.15;;;10.30;99.90;;;;;;4999446;28;20057;-53
2021/12/15 02:09:09;;;;;;;54.85;26.25;;;10.30;99.90;;;;;;4977855;28;20045;-50
2021/12/15 02:11:36;;;;;;;60.90;27.85;;;10.20;99.90;;;;;;4978083;28;20049;-50
2021/12/15 02:14:02;;;;;;;62.17;26.40;;;10.30;99.90;;;;;;4995516;28;20038;-53
2021/12/15 02:16:29;;;;;;;61.75;26.98;;;10.30;99.90;;;;;;4979430;28;20468;-53
2021/12/15 02:18:55;;;;;;;54.00;26.67;;;10.30;99.90;;;;;;4989404;28;20042;-52
2021/12/15 02:21:24;;;;;;;67.90;28.70;;;10.30;99.90;;;;;;4991979;28;20046;-52
2021/12/15 02:23:55;;;;;;;62.83;27.45;;;10.30;99.90;;;;;;5009814;28;20469;-53
2021/12/15 02:26:24;;;;;;;66.30;26.38;;;10.30;99.90;;;;;;4993602;28;20050;-49
2021/12/15 02:28:54;;;;;;;62.42;28.50;;;10.30;99.90;;;;;;4974556;28;20038;-50
2021/12/15 02:31:39;;;;;;;68.15;29.15;;;10.30;99.90;;;;;;4991859;28;20046;-53
2021/12/15 02:34:31;;;;;;;66.55;29.10;;;10.30;99.90;;;;;;4993473;28;20470;-50
2021/12/15 02:40:09;;;;;;;76.30;29.35;;;10.20;99.90;;;;;;5011339;28;20073;-51
2021/12/15 02:42:42;;;;;;;68.97;29.85;;;10.30;99.90;;;;;;5015156;28;20096;-50
2021/12/15 02:45:11;;;;;;;67.78;29.40;;;10.30;99.90;;;;;;5015125;28;20089;-53
2021/12/15 02:47:37;;;;;;;70.00;29.63;;;10.20;99.90;;;;;;5014294;28;20038;-50
2021/12/15 02:50:06;;;;;;;69.20;29.13;;;10.30;99.90;;;;;;5015146;28;20034;-50
2021/12/15 02:52:33;;;;;;;79.20;30.35;;;10.30;99.90;;;;;;4977467;28;20121;-52
2021/12/15 02:54:58;;;;;;;78.63;31.02;;;10.30;99.90;;;;;;5011949;28;20044;-50
2021/12/15 02:57:24;;;;;;;75.38;31.80;;;10.30;99.90;;;;;;5014627;28;20401;-51
2021/12/15 03:03:23;;;;;;;74.50;31.27;;;10.30;99.90;;;;;;5013219;28;20073;-50
2021/12/15 03:05:35;;;;;;;80.32;33.95;;;10.30;99.90;;;;;;5014255;28;20050;-53
2021/12/15 03:08:12;;;;;;;78.82;32.60;;;10.30;99.90;;;;;;5014660;28;20042;-50
2021/12/15 03:16:10;;;;;;;83.40;35.03;;;10.30;99.90;;;;;;4994991;28;20469;-49
2021/12/15 03:18:36;;;;;;;86.75;34.80;;;10.30;99.90;;;;;;4995036;28;20042;-49
2021/12/15 03:21:07;;;;;;;83.53;34.72;;;10.30;99.90;;;;;;4994781;28;20042;-49
2021/12/15 03:23:41;;;;;;;80.20;34.95;;;10.30;99.90;;;;;;4994789;28;20097;-50
2021/12/15 03:26:09;;;;;;;86.63;36.30;;;10.20;99.90;;;;;;5012522;28;20459;-49
2021/12/15 03:39:22;;;;;;;93.22;37.90;;;10.30;99.90;;;;;;5005908;28;20049;-52
2021/12/15 03:41:55;;;;;;;92.28;38.15;;;10.30;99.90;;;;;;5013924;28;20516;-51
2021/12/15 03:44:22;;;;;;;95.82;39.35;;;10.30;99.90;;;;;;5013803;28;20419;-54
2021/12/15 03:46:48;;;;;;;90.70;38.28;;;10.20;99.90;;;;;;4996349;28;20410;-52
2021/12/15 03:49:14;;;;;;;91.43;39.50;;;10.20;99.90;;;;;;4996537;28;20532;-55
2021/12/15 03:51:40;;;;;;;76.00;36.42;;;10.30;99.90;;;;;;5012637;28;20077;-55
2021/12/15 03:54:06;;;;;;;84.18;38.10;;;10.20;99.90;;;;;;5005364;28;20041;-53
2021/12/15 03:56:35;;;;;;;85.00;36.83;;;10.20;99.90;;;;;;4995964;28;20540;-51
2021/12/15 03:59:02;;;;;;;82.57;38.60;;;10.20;99.90;;;;;;5013743;28;20553;-53
2021/12/15 04:01:27;;;;;;;93.68;40.35;;;10.30;99.90;;;;;;5013389;28;20453;-52
2021/12/15 04:03:55;;;;;;;89.38;38.70;;;10.20;99.90;;;;;;5013494;28;20065;-52
2021/12/15 04:06:25;;;;;;;90.03;38.22;;;10.30;99.90;;;;;;5012078;28;20117;-53
2021/12/15 04:08:52;;;;;;;80.00;37.10;;;10.20;99.90;;;;;;5004084;28;20050;-53
2021/12/15 04:11:20;;;;;;;82.15;38.10;;;10.20;99.90;;;;;;5013451;28;20042;-54
2021/12/15 04:13:47;;;;;;;83.65;39.78;;;10.30;99.90;;;;;;4995943;28;20041;-53
2021/12/15 04:18:58;;;;;;;80.57;38.42;;;10.20;99.90;;;;;;5013541;28;20077;-55
2021/12/15 04:21:23;;;;;;;90.28;39.65;;;10.20;99.90;;;;;;5013005;28;20060;-53
2021/12/15 04:32:17;;;;;;;85.85;39.75;;;10.30;99.90;;;;;;4917736;29;20090;-52
2021/12/15 04:34:42;;;;;;;91.07;40.38;;;10.20;99.90;;;;;;4933264;29;20056;-51
2021/12/15 04:37:08;;;;;;;85.20;40.17;;;10.20;99.90;;;;;;4930921;28;20116;-54
2021/12/15 04:39:34;;;;;;;86.50;39.22;;;10.20;99.90;;;;;;4993347;28;20450;-52
2021/12/15 04:42:00;;;;;;;87.07;40.90;;;10.20;99.90;;;;;;4993114;28;20491;-54
2021/12/15 04:44:29;;;;;;;87.05;40.30;;;10.20;99.90;;;;;;4977897;28;20088;-51
2021/12/15 04:47:03;;;;;;;84.18;40.33;;;10.20;99.90;;;;;;5012891;28;20045;-53
2021/12/15 04:49:33;;;;;;;86.80;41.50;;;10.20;99.90;;;;;;5012794;28;20046;-53
2021/12/15 04:52:00;;;;;;;85.88;40.47;;;10.20;99.90;;;;;;4985268;28;20406;-55
2021/12/15 04:54:26;;;;;;;93.78;41.13;;;10.20;99.90;;;;;;4992951;28;20402;-53
2021/12/15 04:56:52;;;;;;;89.40;41.58;;;10.20;99.90;;;;;;4992470;28;20054;-53
2021/12/15 04:59:19;;;;;;;85.60;39.72;;;10.20;99.90;;;;;;4995777;28;20065;-53
2021/12/15 05:01:46;;;;;;;80.47;39.60;;;10.20;99.90;;;;;;5012393;28;20044;-53
2021/12/15 05:04:12;;;;;;;89.72;41.25;;;10.20;99.90;;;;;;4994714;28;20132;-55
2021/12/15 05:06:39;;;;;;;86.35;41.58;;;10.20;99.90;;;;;;5011736;28;20046;-52
2021/12/15 05:09:05;;;;;;;87.18;41.58;;;10.20;99.90;;;;;;4994797;28;20056;-54
2021/12/15 05:11:32;;;;;;;90.85;42.67;;;10.20;99.90;;;;;;5012150;28;20081;-53
2021/12/15 05:13:57;;;;;;;85.97;39.95;;;10.20;99.90;;;;;;5012265;28;20041;-51
2021/12/15 05:16:23;;;;;;;85.55;41.95;;;10.20;99.90;;;;;;4975455;28;20061;-53
2021/12/15 05:18:49;;;;;;;84.00;41.83;;;10.20;99.90;;;;;;4992620;28;20117;-54
2021/12/15 05:21:16;;;;;;;87.20;41.50;;;10.20;99.90;;;;;;5010239;28;20411;-52
2021/12/15 05:23:45;;;;;;;83.72;41.08;;;10.20;99.90;;;;;;5012136;28;20073;-53
2021/12/15 05:26:12;;;;;;;84.63;40.38;;;10.20;99.90;;;;;;5012347;28;20046;-51
2021/12/15 05:28:38;;;;;;;86.47;42.03;;;10.20;99.90;;;;;;5007433;28;20525;-51
2021/12/15 05:31:03;;;;;;;82.05;41.53;;;10.20;99.90;;;;;;4993989;28;20039;-50
2021/12/15 05:33:29;;;;;;;85.13;41.20;;;10.20;99.90;;;;;;5011100;28;20540;-50
2021/12/15 05:35:56;;;;;;;84.57;40.95;;;10.20;99.90;;;;;;5008884;28;20034;-50
2021/12/15 05:38:24;;;;;;;83.10;41.20;;;10.20;99.90;;;;;;4993982;28;20041;-51
2021/12/15 05:40:50;;;;;;;85.22;40.47;;;10.20;99.90;;;;;;5012137;28;20041;-50
2021/12/15 05:43:16;;;;;;;92.00;41.60;;;10.20;99.90;;;;;;5011266;28;20034;-50
2021/12/15 05:45:42;;;;;;;85.93;41.03;;;10.20;99.90;;;;;;5006609;28;20100;-50
2021/12/15 05:48:10;;;;;;;83.25;39.97;;;10.20;99.90;;;;;;4992362;28;20050;-50
2021/12/15 05:50:36;;;;;;;85.85;40.90;;;10.20;99.90;;;;;;4992212;28;20168;-50
2021/12/15 05:53:04;;;;;;;83.35;41.03;;;10.20;99.90;;;;;;4992740;28;20514;-50
2021/12/15 05:55:30;;;;;;;88.93;42.58;;;10.20;99.90;;;;;;4992385;28;20061;-50
2021/12/15 05:57:56;;;;;;;95.70;42.22;;;10.20;99.90;;;;;;5006521;28;20038;-49
2021/12/15 06:00:27;;;;;;;92.75;43.58;;;10.20;99.90;;;;;;4993247;28;20045;-50
2021/12/15 06:02:55;;;;;;;82.57;39.60;;;10.20;99.90;;;;;;5010728;28;20490;-53
2021/12/15 06:05:21;;;;;;;84.45;40.40;;;10.20;99.90;;;;;;4959670;28;20042;-52
2021/12/15 06:07:46;;;;;;;93.32;41.92;;;10.20;99.90;;;;;;5011574;28;20041;-53
2021/12/15 06:10:18;;;;;;;85.72;40.65;;;10.20;99.90;;;;;;5015225;28;20034;-52
2021/12/15 06:12:47;;;;;;;84.47;40.67;;;10.20;99.90;;;;;;5015387;28;20037;-50
2021/12/15 06:15:20;;;;;;;88.38;40.83;;;10.20;99.90;;;;;;4998027;28;20395;-50
2021/12/15 06:17:46;;;;;;;86.88;40.30;;;10.20;99.90;;;;;;4997519;28;20033;-50
2021/12/15 06:20:12;;;;;;;94.72;42.28;;;10.20;99.90;;;;;;5015268;28;20037;-53
2021/12/15 06:22:40;;;;;;;84.05;40.95;;;10.20;99.90;;;;;;5010756;28;20084;-51
2021/12/15 06:25:06;;;;;;;93.80;41.72;;;10.20;99.90;;;;;;4976310;28;20116;-49
2021/12/15 06:27:35;;;;;;;96.40;41.40;;;10.20;99.90;;;;;;4996529;28;20336;-49
2021/12/15 06:30:01;;;;;;;87.60;40.45;;;10.20;99.90;;;;;;5014031;28;20461;-53
2021/12/15 06:32:27;;;;;;;88.45;39.75;;;10.20;99.90;;;;;;5013851;28;20506;-51
2021/12/15 06:34:53;;;;;;;87.20;39.60;;;10.20;99.90;;;;;;5015129;28;20076;-53
2021/12/15 06:37:19;;;;;;;89.82;40.72;;;10.20;99.90;;;;;;5000378;28;20042;-51
2021/12/15 06:39:45;;;;;;;98.18;40.45;;;10.20;99.90;;;;;;4978975;28;20100;-50
2021/12/15 06:42:10;;;;;;;94.43;40.22;;;10.20;99.90;;;;;;5010762;28;20042;-53
2021/12/15 06:44:36;;;;;;;91.97;40.72;;;10.20;99.90;;;;;;5015195;28;20048;-52
2021/12/15 06:47:23;;;;;;;92.07;40.97;;;10.20;99.90;;;;;;5008259;28;20059;-52
2021/12/15 07:00:39;;;;;;;85.15;39.08;;;10.20;99.90;;;;;;5005140;28;20096;-51
2021/12/15 07:03:05;;;;;;;81.85;36.80;;;10.20;99.90;;;;;;4998383;28;20033;-53
2021/12/15 07:05:31;;;;;;;85.80;39.10;;;10.20;99.90;;;;;;5010333;28;20096;-50
2021/12/15 07:08:00;;;;;;;81.43;38.45;;;10.20;99.90;;;;;;5015538;28;20520;-53
2021/12/15 07:10:29;;;;;;;83.40;37.97;;;10.20;99.90;;;;;;5007532;28;20034;-50
2021/12/15 07:12:56;;;;;;;82.95;38.38;;;10.20;99.90;;;;;;5015114;28;20042;-50
2021/12/15 07:15:22;;;;;;;81.88;38.88;;;10.20;99.90;;;;;;5012909;28;20038;-50
2021/12/15 07:17:51;;;;;;;71.72;35.53;;;10.20;99.90;;;;;;5002031;28;20041;-50
2021/12/15 07:23:00;;;;;;;80.10;37.20;;;10.20;99.90;;;;;;5001023;28;20410;-51
2021/12/15 07:25:26;;;;;;;86.43;37.95;;;10.20;99.90;;;;;;5012027;28;20088;-52
2021/12/15 07:27:52;;;;;;;77.60;37.95;;;10.20;99.90;;;;;;5014531;28;20104;-51
2021/12/15 07:30:18;;;;;;;79.80;37.47;;;10.10;99.90;;;;;;5006916;28;20121;-51
2021/12/15 07:32:44;;;;;;;81.90;36.92;;;10.20;99.90;;;;;;5012161;28;20034;-53
2021/12/15 07:35:11;;;;;;;79.03;34.92;;;10.20;99.90;;;;;;5014106;28;20095;-52
2021/12/15 07:37:37;;;;;;;74.47;36.25;;;10.20;99.90;;;;;;5014556;28;20449;-50
2021/12/15 07:40:07;;;;;;;83.20;37.83;;;10.20;99.90;;;;;;5014663;28;20121;-50
2021/12/15 07:42:36;;;;;;;86.38;37.28;;;10.20;99.90;;;;;;5014023;28;20100;-53
2021/12/15 07:45:05;;;;;;;75.15;36.22;;;10.20;99.90;;;;;;4995305;28;20046;-54
2021/12/15 07:47:31;;;;;;;79.65;37.38;;;10.20;99.90;;;;;;5007307;28;20169;-56
2021/12/15 07:50:01;;;;;;;75.75;36.53;;;10.20;99.90;;;;;;5010303;28;20121;-56
2021/12/15 07:52:29;;;;;;;76.30;34.50;;;10.20;99.90;;;;;;4994622;28;20038;-52
2021/12/15 07:54:55;;;;;;;77.28;34.53;;;10.20;99.90;;;;;;5013306;28;20037;-56
2021/12/15 07:57:22;;;;;;;73.70;35.38;;;10.20;99.90;;;;;;5009854;28;20037;-55
2021/12/15 07:59:49;;;;;;;73.60;34.60;;;10.10;99.90;;;;;;5009424;28;20033;-57
2021/12/15 08:02:14;;;;;;;81.75;36.05;;;10.20;99.90;;;;;;5010097;28;20049;-56
2021/12/15 08:04:40;;;;;;;75.60;35.38;;;10.20;99.90;;;;;;5009734;28;20041;-56
2021/12/15 08:07:06;;;;;;;75.00;35.28;;;10.20;99.90;;;;;;5012433;28;20046;-56
2021/12/15 08:09:32;;;;;;;72.85;34.63;;;10.20;99.90;;;;;;5009558;28;20038;-56
2021/12/15 08:11:58;;;;;;;74.35;35.08;;;10.20;99.90;;;;;;4995341;28;20034;-57
2021/12/15 08:14:24;;;;;;;70.32;35.40;;;10.20;99.90;;;;;;5012076;28;20099;-56
2021/12/15 08:16:50;;;;;;;74.40;34.67;;;10.30;99.90;;;;;;5011757;28;20038;-56
2021/12/15 08:19:18;;;;;;;74.97;35.30;;;10.20;99.90;;;;;;5008979;28;20038;-56
2021/12/15 08:21:44;;;;;;;75.47;33.45;;;10.20;99.90;;;;;;4976708;28;20390;-56
2021/12/15 08:24:10;;;;;;;73.53;33.88;;;10.20;99.90;;;;;;5005559;28;20475;-56
2021/12/15 08:26:35;;;;;;;63.92;31.83;;;10.20;99.90;;;;;;5005788;28;20081;-56
2021/12/15 08:29:01;;;;;;;69.53;32.65;;;10.30;99.90;;;;;;5004987;28;20099;-56
2021/12/15 08:31:27;;;;;;;68.15;34.25;;;10.30;99.90;;;;;;5004715;28;20038;-54
2021/12/15 08:33:52;;;;;;;68.18;32.83;;;10.30;99.90;;;;;;5005974;28;20049;-56
2021/12/15 08:36:18;;;;;;;75.45;34.95;;;10.30;99.90;;;;;;5006868;28;20541;-56
2021/12/15 08:38:47;;;;;;;66.90;32.75;;;10.30;99.90;;;;;;5012897;28;20030;-56
2021/12/15 08:41:17;;;;;;;66.13;32.92;;;10.30;99.90;;;;;;5012985;28;20095;-56
2021/12/15 08:43:43;;;;;;;68.05;33.47;;;10.30;99.90;;;;;;4995199;28;20087;-56
2021/12/15 08:46:18;;;;;;;74.13;33.13;;;10.40;99.90;;;;;;5011171;28;20049;-57
2021/12/15 08:48:46;;;;;;;69.47;33.47;;;10.30;99.90;;;;;;5005153;28;20045;-56
2021/12/15 08:51:13;;;;;;;69.68;32.75;;;10.30;99.90;;;;;;5011467;28;20070;-56
2021/12/15 08:53:41;;;;;;;72.18;33.28;;;10.30;99.90;;;;;;4994925;28;20402;-56
2021/12/15 08:56:09;;;;;;;69.80;33.90;;;10.40;99.90;;;;;;5010895;28;20072;-57
2021/12/15 08:58:36;;;;;;;66.38;31.90;;;10.40;99.90;;;;;;5012706;28;20553;-56
2021/12/15 09:01:04;;;;;;;76.63;34.58;;;10.40;99.90;;;;;;5010529;28;20457;-56
2021/12/15 09:03:30;;;;;;;69.28;33.88;;;10.40;99.90;;;;;;5012184;28;20041;-56
2021/12/15 09:05:58;;;;;;;72.38;33.40;;;10.40;99.90;;;;;;5008120;28;20044;-56
2021/12/15 09:08:25;;;;;;;75.22;34.08;;;10.40;99.90;;;;;;5012228;28;20065;-56
2021/12/15 09:10:54;;;;;;;70.57;32.88;;;10.40;99.90;;;;;;5011542;28;20068;-56
2021/12/15 09:13:19;;;;;;;69.38;32.90;;;10.40;99.90;;;;;;4994906;28;20045;-56
2021/12/15 09:15:45;;;;;;;74.55;33.92;;;10.50;99.90;;;;;;5012547;28;20094;-56
2021/12/15 09:18:13;;;;;;;65.18;32.20;;;10.50;99.90;;;;;;5012724;28;20030;-56
2021/12/15 09:20:41;;;;;;;70.22;33.70;;;10.50;99.90;;;;;;4993950;28;20099;-56
2021/12/15 09:23:09;;;;;;;64.30;31.13;;;10.50;99.90;;;;;;5012024;28;20030;-56
2021/12/15 09:25:36;;;;;;;68.32;32.10;;;10.50;99.90;;;;;;5010784;28;20053;-56
2021/12/15 09:28:03;;;;;;;68.72;31.42;;;10.50;99.90;;;;;;4995000;28;20085;-56
2021/12/15 09:30:31;;;;;;;68.13;31.00;;;10.50;99.90;;;;;;5011911;28;20088;-56
2021/12/15 09:32:57;;;;;;;63.20;31.00;;;10.50;99.90;;;;;;5011938;28;20045;-56
2021/12/15 09:35:27;;;;;;;63.38;30.10;;;10.60;99.90;;;;;;5011995;28;20079;-56
2021/12/15 09:37:53;;;;;;;63.38;31.88;;;10.50;99.90;;;;;;4994239;28;20116;-56
2021/12/15 09:40:21;;;;;;;64.15;32.05;;;10.60;99.90;;;;;;5011267;28;20401;-56
2021/12/15 09:42:48;;;;;;;64.45;30.92;;;10.60;99.90;;;;;;5011870;28;20114;-56
2021/12/15 10:04:21;;;;;;;62.28;29.75;;;10.60;99.90;;;;;;5011790;28;20525;-53
2021/12/15 10:17:22;;;;;;;60.10;30.15;;;10.60;99.90;;;;;;5011350;28;20048;-56
2021/12/15 10:18:10;;;;;;;64.05;29.50;;;10.60;99.90;;;;;;5011705;28;20141;-56
2021/12/15 10:20:39;;;;;;;56.00;28.05;;;10.70;99.90;;;;;;4994227;28;20038;-57
2021/12/15 10:23:13;;;;;;;58.97;28.85;;;10.70;99.90;;;;;;5012568;28;20026;-52
2021/12/15 10:25:44;;;;;;;54.97;27.13;;;10.70;99.90;;;;;;5012143;28;20042;-54
2021/12/15 10:28:22;;;;;;;58.25;29.65;;;10.70;99.90;;;;;;5011465;28;20081;-52
2021/12/15 10:30:55;;;;;;;57.28;29.05;;;10.70;99.90;;;;;;5011713;28;20117;-54
2021/12/15 10:33:22;;;;;;;61.53;28.13;;;10.70;99.90;;;;;;4991712;28;20050;-55
2021/12/15 10:35:53;;;;;;;67.50;30.00;;;10.70;99.90;;;;;;4991771;28;20074;-54
2021/12/15 10:38:26;;;;;;;66.22;29.55;;;10.70;99.90;;;;;;4991767;28;20089;-54
2021/12/15 10:41:24;;;;;;;58.47;28.45;;;10.70;99.90;;;;;;5008624;28;20041;-54
2021/12/15 10:44:06;;;;;;;57.42;28.40;;;10.70;99.90;;;;;;4958823;28;20050;-53
2021/12/15 10:46:58;;;;;;;58.50;29.20;;;10.80;99.90;;;;;;4991695;28;20042;-55
2021/12/15 10:49:30;;;;;;;61.47;29.73;;;10.80;99.90;;;;;;4966556;28;20060;-54
2021/12/15 10:52:04;;;;;;;56.15;28.25;;;10.80;99.90;;;;;;4991482;28;20065;-54
2021/12/15 10:54:44;;;;;;;60.45;28.48;;;10.80;99.90;;;;;;4975091;28;20125;-53
2021/12/15 10:57:20;;;;;;;56.85;28.15;;;10.80;99.90;;;;;;5010324;28;20038;-52
2021/12/15 10:59:52;;;;;;;57.88;27.27;;;10.90;99.90;;;;;;5015244;28;20116;-54
2021/12/15 11:02:32;;;;;;;58.72;27.27;;;10.80;99.90;;;;;;5014755;28;20041;-54
2021/12/15 11:05:05;;;;;;;56.22;27.20;;;10.80;99.90;;;;;;5014739;28;20048;-54
2021/12/15 11:07:43;;;;;;;62.45;28.80;;;10.80;99.90;;;;;;5014624;28;20073;-55
2021/12/15 11:10:11;;;;;;;53.63;27.52;;;10.90;99.90;;;;;;5014928;28;20112;-54
2021/12/15 11:12:42;;;;;;;55.72;27.35;;;10.90;99.90;;;;;;5014392;28;20042;-54
2021/12/15 11:15:11;;;;;;;54.17;26.83;;;10.90;99.90;;;;;;5014818;28;20046;-54
2021/12/15 11:17:46;;;;;;;58.53;28.00;;;10.90;99.90;;;;;;5014419;28;20041;-54
2021/12/15 11:20:27;;;;;;;57.15;27.48;;;10.90;99.90;;;;;;5014489;28;20085;-52
2021/12/15 11:23:02;;;;;;;58.72;27.45;;;10.90;99.90;;;;;;5014148;28;20124;-53
2021/12/15 11:25:37;;;;;;;54.47;25.80;;;10.90;99.90;;;;;;5013318;28;20053;-51
2021/12/15 11:28:08;;;;;;;52.33;26.67;;;10.90;99.90;;;;;;5014126;28;20034;-51
2021/12/15 11:30:42;;;;;;;56.97;26.50;;;10.90;99.90;;;;;;5014724;28;20034;-53
2021/12/15 11:33:15;;;;;;;49.88;24.75;;;10.80;99.90;;;;;;4996610;28;20137;-51
2021/12/15 11:35:45;;;;;;;49.90;26.38;;;10.80;99.90;;;;;;4996857;28;20037;-54
2021/12/15 11:38:16;;;;;;;48.53;24.40;;;10.80;99.90;;;;;;5012939;28;20049;-53
2021/12/15 11:40:47;;;;;;;51.85;26.05;;;10.80;99.90;;;;;;5014361;28;20096;-54
2021/12/15 11:43:39;;;;;;;46.22;24.08;;;10.80;99.90;;;;;;5013915;28;20038;-54
2021/12/15 11:46:13;;;;;;;43.77;24.00;;;10.90;99.90;;;;;;5014111;28;20525;-53
2021/12/15 11:48:39;;;;;;;44.70;22.80;;;10.90;99.90;;;;;;5014011;28;20078;-54
2021/12/15 11:51:06;;;;;;;41.00;21.92;;;10.90;99.90;;;;;;5013662;28;20066;-54
2021/12/15 11:53:39;;;;;;;46.08;22.17;;;11.00;99.90;;;;;;5013670;28;20042;-51
2021/12/15 11:56:20;;;;;;;44.13;22.50;;;10.90;99.90;;;;;;5013328;28;20065;-51
2021/12/15 11:58:48;;;;;;;37.75;20.02;;;11.00;99.90;;;;;;5013223;28;20049;-52
2021/12/15 12:01:41;;;;;;;41.60;20.08;;;11.00;99.90;;;;;;4996405;28;20069;-51
2021/12/15 12:04:15;;;;;;;36.92;20.25;;;11.00;99.90;;;;;;5013521;28;20081;-53
2021/12/15 12:06:42;;;;;;;37.00;19.67;;;11.00;99.90;;;;;;5012539;28;20042;-52
2021/12/15 12:09:07;;;;;;;38.38;20.80;;;11.00;99.90;;;;;;5012988;28;20048;-54
2021/12/15 12:11:34;;;;;;;39.83;21.08;;;11.00;99.90;;;;;;5012746;28;20038;-54
2021/12/15 12:14:00;;;;;;;38.75;19.75;;;11.00;99.90;;;;;;5012487;28;20088;-55
2021/12/15 12:16:26;;;;;;;38.35;20.13;;;11.00;99.90;;;;;;5013176;28;20041;-54
2021/12/15 12:18:53;;;;;;;42.75;20.85;;;11.00;99.90;;;;;;5013534;28;20033;-53
2021/12/15 12:21:20;;;;;;;39.08;19.95;;;11.00;99.90;;;;;;5013483;28;20056;-54
2021/12/15 12:23:49;;;;;;;35.28;19.80;;;11.00;99.90;;;;;;5011876;28;20509;-52
2021/12/15 12:26:17;;;;;;;40.13;20.88;;;11.00;99.90;;;;;;5013272;28;20045;-51
2021/12/15 12:28:46;;;;;;;38.10;19.35;;;11.00;99.90;;;;;;5011229;28;20038;-52
2021/12/15 12:31:22;;;;;;;34.70;18.55;;;11.00;99.90;;;;;;5013068;28;20486;-54
2021/12/15 12:33:49;;;;;;;39.40;20.15;;;11.10;99.90;;;;;;5012944;28;20056;-54
2021/12/15 12:36:20;;;;;;;37.38;19.75;;;11.10;99.90;;;;;;5012998;28;20049;-54
2021/12/15 12:38:53;;;;;;;38.60;19.50;;;11.00;99.90;;;;;;5013130;28;20104;-54
2021/12/15 12:41:20;;;;;;;;;;;11.10;99.90;;;;;;5013138;28;20042;-54
2021/12/15 12:43:49;;;;;;;39.22;20.02;;;11.00;99.90;;;;;;5012464;28;20378;-56
2021/12/15 12:46:25;;;;;;;36.78;19.75;;;11.00;99.90;;;;;;5012676;28;20089;-54
2021/12/15 13:00:29;;;;;;;34.03;19.52;;;10.90;99.90;;;;;;5007355;28;20041;-56
2021/12/15 13:03:01;;;;;;;39.67;19.52;;;10.90;99.90;;;;;;5010402;28;21626;-54
2021/12/15 13:05:44;;;;;;;36.67;18.77;;;10.90;99.90;;;;;;5002805;28;20118;-55
2021/12/15 13:08:34;;;;;;;35.30;17.90;;;11.00;99.90;;;;;;5008160;28;20112;-55
2021/12/15 13:11:18;;;;;;;34.28;18.52;;;10.90;99.90;;;;;;5006274;28;20116;-55
2021/12/15 13:14:02;;;;;;;37.88;17.20;;;10.90;99.90;;;;;;5002365;28;20041;-54
2021/12/15 13:16:41;;;;;;;33.47;16.80;;;10.90;99.90;;;;;;4987029;28;20045;-53
2021/12/15 13:19:29;;;;;;;30.30;15.88;;;10.90;99.90;;;;;;5011766;28;20030;-53
2021/12/15 13:22:48;;;;;;;27.67;14.75;;;10.90;99.90;;;;;;5008923;28;20445;-55
2021/12/15 13:31:11;;;;;;;28.40;13.55;;;10.90;99.90;;;;;;4989718;28;20057;-54
2021/12/15 13:33:38;;;;;;;26.48;12.48;;;10.90;99.90;;;;;;5010314;28;20095;-52
2021/12/15 13:36:10;;;;;;;26.23;12.43;;;10.90;99.90;;;;;;5012127;28;20050;-51
2021/12/15 13:38:53;;;;;;;22.33;10.25;;;10.90;99.90;;;;;;4985290;28;20038;-52
2021/12/15 13:41:44;;;;;;;23.42;9.70;;;10.90;99.90;;;;;;5007779;28;20054;-52
2021/12/15 13:44:35;;;;;;;19.58;9.52;;;10.90;99.90;;;;;;4989391;28;20683;-52
2021/12/15 13:47:07;;;;;;;21.48;9.23;;;10.90;99.90;;;;;;4997591;28;20034;-52
2021/12/15 13:49:32;;;;;;;15.30;8.70;;;10.90;99.90;;;;;;4993902;28;20049;-52
2021/12/15 13:52:34;;;;;;;20.80;8.80;;;10.90;99.90;;;;;;4983177;28;20039;-56
2021/12/15 13:55:15;;;;;;;18.70;8.50;;;10.80;99.90;;;;;;5017536;28;20125;-51
2021/12/15 13:57:50;;;;;;;17.08;8.65;;;10.80;99.90;;;;;;4993791;28;20116;-54
2021/12/15 14:00:43;;;;;;;21.02;8.18;;;10.80;99.90;;;;;;4975666;28;20049;-51
2021/12/15 14:03:44;;;;;;;18.40;8.13;;;10.80;99.90;;;;;;4995849;28;20081;-51
2021/12/15 14:06:13;;;;;;;22.08;9.05;;;10.80;99.90;;;;;;4995741;28;20039;-53
2021/12/15 14:14:56;;;;;;;13.52;4.78;;;10.80;99.90;;;;;;6057599;22;20078;-51
2021/12/15 14:17:22;;;;;;;10.35;4.07;;;10.70;99.90;;;;;;4996120;28;20499;-52
2021/12/15 14:19:48;;;;;;;11.57;4.20;;;10.70;99.90;;;;;;5000441;28;20124;-49
2021/12/15 14:22:13;;;;;;;13.20;4.35;;;10.60;99.90;;;;;;5003383;28;20137;-48
2021/12/15 14:24:39;;;;;;;7.63;3.40;;;10.70;99.90;;;;;;5007102;28;20120;-48
2021/12/15 14:27:06;;;;;;;13.73;5.00;;;10.60;99.90;;;;;;5008940;28;20045;-52
2021/12/15 14:29:33;;;;;;;7.07;2.53;;;10.60;99.90;;;;;;4979923;28;20043;-54